createdAt,value
2023-04-20T00:01:07.949Z,96195.53
2023-04-20T00:03:38.087Z,96207.28
2023-04-20T00:06:06.950Z,96202.94
2023-04-20T00:08:35.272Z,96197.44
2023-04-20T00:11:03.517Z,96191.25
2023-04-20T00:13:31.782Z,96188.22
2023-04-20T00:16:00.034Z,96182.38
2023-04-20T00:18:29.680Z,96183.03
2023-04-20T00:20:57.970Z,96178.66
2023-04-20T00:23:26.261Z,96185.53
2023-04-20T00:25:54.648Z,96174.63
2023-04-20T00:28:22.957Z,96169.66
2023-04-20T00:30:51.316Z,96165.00
2023-04-20T00:33:19.626Z,96166.75
2023-04-20T00:35:49.255Z,96170.28
2023-04-20T00:38:17.634Z,96168.22
2023-04-20T00:40:48.850Z,96166.44
2023-04-20T00:43:17.091Z,96163.06
2023-04-20T00:46:29.249Z,96160.09
2023-04-20T00:48:57.837Z,96147.94
2023-04-20T00:51:29.053Z,96137.91
2023-04-20T00:53:57.582Z,96145.25
2023-04-20T00:56:25.858Z,96146.34
2023-04-20T00:58:54.083Z,96133.34
2023-04-20T01:01:22.366Z,96124.81
2023-04-20T01:03:50.735Z,96127.84
2023-04-20T01:06:19.133Z,96117.13
2023-04-20T01:08:50.020Z,96118.50
2023-04-20T01:11:18.515Z,96119.00
2023-04-20T01:13:46.775Z,96110.88
2023-04-20T01:16:15.151Z,96113.25
2023-04-20T01:18:46.409Z,96113.13
2023-04-20T01:21:16.396Z,96102.69
2023-04-20T01:23:46.477Z,96107.28
2023-04-20T01:26:16.953Z,96104.38
2023-04-20T01:28:45.722Z,96087.25
2023-04-20T01:31:14.894Z,96087.34
2023-04-20T01:33:43.215Z,96084.53
2023-04-20T01:36:11.830Z,96088.44
2023-04-20T01:38:40.172Z,96086.25
2023-04-20T01:41:10.948Z,96086.41
2023-04-20T01:43:40.212Z,96085.69
2023-04-20T01:46:08.518Z,96079.66
2023-04-20T01:48:36.791Z,96069.47
2023-04-20T01:51:05.332Z,96079.44
2023-04-20T01:53:33.583Z,96081.00
2023-04-20T01:56:01.888Z,96077.72
2023-04-20T01:58:31.719Z,96077.06
2023-04-20T02:01:02.354Z,96072.84
2023-04-20T02:03:31.043Z,96073.88
2023-04-20T02:05:59.372Z,96067.94
2023-04-20T02:08:27.826Z,96072.59
2023-04-20T02:10:56.083Z,96062.97
2023-04-20T02:13:24.300Z,96065.09
2023-04-20T02:15:54.069Z,96064.63
2023-04-20T02:18:22.732Z,96061.59
2023-04-20T02:20:51.102Z,96054.38
2023-04-20T02:23:19.419Z,96063.63
2023-04-20T02:25:47.755Z,96056.94
2023-04-20T02:28:16.010Z,96057.00
2023-04-20T02:30:44.477Z,96059.31
2023-04-20T02:33:14.130Z,96062.38
2023-04-20T02:35:42.409Z,96065.78
2023-04-20T02:38:10.892Z,96051.13
2023-04-20T02:40:39.149Z,96057.19
2023-04-20T02:43:07.396Z,96052.47
2023-04-20T02:45:35.834Z,96051.16
2023-04-20T02:48:04.362Z,96051.19
2023-04-20T02:50:35.094Z,96047.47
2023-04-20T02:53:03.364Z,96044.72
2023-04-20T02:55:31.715Z,96042.22
2023-04-20T02:57:59.983Z,96041.47
2023-04-20T03:00:28.309Z,96050.56
2023-04-20T03:02:56.735Z,96040.28
2023-04-20T03:05:25.306Z,96038.53
2023-04-20T03:07:55.126Z,96041.13
2023-04-20T03:10:23.508Z,96035.09
2023-04-20T03:12:51.713Z,96036.66
2023-04-20T03:15:20.020Z,96033.06
2023-04-20T03:17:48.245Z,96034.81
2023-04-20T03:20:16.811Z,96017.28
2023-04-20T03:22:45.034Z,96028.09
2023-04-20T03:25:14.635Z,96022.28
2023-04-20T03:27:42.926Z,96025.69
2023-04-20T03:30:12.384Z,96027.06
2023-04-20T03:32:40.885Z,96030.56
2023-04-20T03:35:10.256Z,96024.53
2023-04-20T03:37:38.825Z,96020.34
2023-04-20T03:40:08.462Z,96029.84
2023-04-20T03:42:38.330Z,96032.94
2023-04-20T03:45:07.973Z,96021.53
2023-04-20T03:47:36.264Z,96024.50
2023-04-20T03:50:05.182Z,96030.16
2023-04-20T03:52:33.442Z,96026.63
2023-04-20T03:55:01.729Z,96033.03
2023-04-20T03:57:29.987Z,96030.94
2023-04-20T03:59:59.642Z,96024.25
2023-04-20T04:02:28.393Z,96025.22
2023-04-20T04:04:56.948Z,96023.69
2023-04-20T04:07:25.469Z,96025.13
2023-04-20T04:09:53.717Z,96017.84
2023-04-20T04:12:21.974Z,96010.75
2023-04-20T04:14:50.305Z,96008.88
2023-04-20T04:17:19.884Z,96008.63
2023-04-20T04:19:48.239Z,96022.28
2023-04-20T04:22:16.451Z,96016.03
2023-04-20T04:24:44.973Z,96012.84
2023-04-20T04:27:15.660Z,96003.94
2023-04-20T04:29:44.809Z,95999.31
2023-04-20T04:32:13.534Z,96001.69
2023-04-20T04:34:44.517Z,96016.31
2023-04-20T04:37:14.488Z,96021.19
2023-04-20T04:39:42.775Z,96022.41
2023-04-20T04:42:11.095Z,96019.19
2023-04-20T04:44:40.067Z,96010.34
2023-04-20T04:47:09.601Z,96008.22
2023-04-20T04:49:37.808Z,96012.16
2023-04-20T04:52:07.510Z,96005.72
2023-04-20T04:54:35.774Z,96005.00
2023-04-20T04:57:04.104Z,96004.34
2023-04-20T04:59:32.335Z,96007.50
2023-04-20T05:02:00.893Z,96014.78
2023-04-20T05:04:29.361Z,96012.41
2023-04-20T05:06:57.732Z,96011.03
2023-04-20T05:09:35.156Z,96007.75
2023-04-20T05:12:04.005Z,96006.47
2023-04-20T05:14:32.639Z,96010.13
2023-04-20T05:17:01.144Z,96014.81
2023-04-20T05:19:29.638Z,96016.53
2023-04-20T05:21:57.922Z,96019.06
2023-04-20T05:24:27.581Z,96013.59
2023-04-20T05:26:55.972Z,96018.03
2023-04-20T05:29:24.255Z,96015.78
2023-04-20T05:31:52.624Z,96016.28
2023-04-20T05:34:21.132Z,96013.50
2023-04-20T05:36:49.439Z,96022.69
2023-04-20T05:39:18.027Z,96009.81
2023-04-20T05:41:48.499Z,96011.00
2023-04-20T05:44:17.124Z,96014.31
2023-04-20T05:46:45.410Z,96015.44
2023-04-20T05:49:13.685Z,96013.81
2023-04-20T05:51:42.038Z,96012.50
2023-04-20T05:54:11.136Z,96012.16
2023-04-20T05:56:39.492Z,95998.59
2023-04-20T05:59:09.495Z,96007.88
2023-04-20T06:01:37.740Z,96000.34
2023-04-20T06:04:06.377Z,95996.75
2023-04-20T06:06:34.737Z,95988.78
2023-04-20T06:09:03.859Z,96004.34
2023-04-20T06:11:32.308Z,96002.59
2023-04-20T06:14:00.639Z,96014.56
2023-04-20T06:16:30.415Z,96006.66
2023-04-20T06:18:58.720Z,96001.63
2023-04-20T06:21:27.365Z,96019.28
2023-04-20T06:23:55.935Z,96000.63
2023-04-20T06:26:24.811Z,95996.03
2023-04-20T06:28:53.253Z,96005.91
2023-04-20T06:31:21.856Z,95995.50
2023-04-20T06:33:51.472Z,96000.56
2023-04-20T06:36:19.791Z,96002.91
2023-04-20T06:38:48.012Z,96000.16
2023-04-20T06:41:16.488Z,95995.94
2023-04-20T06:43:45.743Z,95983.22
2023-04-20T06:46:14.028Z,95991.88
2023-04-20T06:48:42.314Z,95974.81
2023-04-20T06:51:13.677Z,95981.44
2023-04-20T06:53:41.930Z,95982.63
2023-04-20T06:56:11.393Z,95981.59
2023-04-20T06:58:39.715Z,95976.66
2023-04-20T07:01:08.049Z,95983.69
2023-04-20T07:03:36.548Z,95987.88
2023-04-20T07:06:07.024Z,95981.84
2023-04-20T07:08:36.792Z,95968.63
2023-04-20T07:11:05.118Z,95969.81
2023-04-20T07:13:34.086Z,95962.47
2023-04-20T07:16:02.764Z,95967.88
2023-04-20T07:18:32.356Z,95978.22
2023-04-20T07:21:02.221Z,95972.16
2023-04-20T07:23:30.499Z,95974.41
2023-04-20T07:26:00.178Z,95972.50
2023-04-20T07:28:28.433Z,95967.00
2023-04-20T07:30:56.676Z,95963.94
2023-04-20T07:33:25.536Z,95971.69
2023-04-20T07:35:53.742Z,95963.22
2023-04-20T07:38:22.063Z,95982.25
2023-04-20T07:40:50.332Z,95969.97
2023-04-20T07:43:19.950Z,95965.19
2023-04-20T07:45:48.629Z,95970.53
2023-04-20T07:48:17.003Z,95967.19
2023-04-20T07:50:45.619Z,95977.63
2023-04-20T07:53:14.202Z,95986.66
2023-04-20T07:55:42.508Z,95985.44
2023-04-20T07:58:10.966Z,95984.16
2023-04-20T08:00:40.642Z,95998.72
2023-04-20T08:03:09.251Z,95998.06
2023-04-20T08:05:40.923Z,95997.53
2023-04-20T08:08:09.230Z,95996.81
2023-04-20T08:10:37.484Z,96003.63
2023-04-20T08:13:06.166Z,95988.38
2023-04-20T08:15:34.454Z,95991.75
2023-04-20T08:18:04.295Z,95991.47
2023-04-20T08:23:01.734Z,95987.16
2023-04-20T08:25:30.016Z,95974.91
2023-04-20T08:27:58.250Z,95966.72
2023-04-20T08:30:28.254Z,95964.81
2023-04-20T08:32:56.494Z,95966.75
2023-04-20T08:35:26.365Z,95958.97
2023-04-20T08:37:54.641Z,95954.00
2023-04-20T08:40:24.498Z,95957.97
2023-04-20T08:42:52.807Z,95970.69
2023-04-20T08:45:21.206Z,95962.06
2023-04-20T08:47:49.684Z,95969.34
2023-04-20T08:50:17.971Z,95968.97
2023-04-20T08:52:48.119Z,95964.78
2023-04-20T08:55:16.802Z,95962.63
2023-04-20T08:57:45.070Z,95966.41
2023-04-20T09:00:14.492Z,95971.63
2023-04-20T09:02:52.834Z,95976.00
2023-04-20T09:05:29.118Z,95977.91
2023-04-20T09:08:01.095Z,95971.59
2023-04-20T09:10:40.914Z,95966.78
2023-04-20T09:13:09.315Z,95977.00
2023-04-20T09:15:37.644Z,95976.88
2023-04-20T09:18:14.036Z,95961.56
2023-04-20T09:20:42.383Z,95963.41
2023-04-20T09:23:15.439Z,95962.81
2023-04-20T09:25:46.220Z,95951.44
2023-04-20T09:28:15.077Z,95959.72
2023-04-20T09:30:45.226Z,95965.66
2023-04-20T09:33:14.642Z,95970.03
2023-04-20T09:35:44.668Z,95966.13
2023-04-20T09:38:17.086Z,95965.94
2023-04-20T09:40:45.646Z,95957.88
2023-04-20T09:43:19.334Z,95958.56
2023-04-20T09:45:47.918Z,95970.94
2023-04-20T09:48:19.416Z,95962.13
2023-04-20T09:50:50.458Z,95955.22
2023-04-20T09:53:21.567Z,95960.91
2023-04-20T09:55:51.250Z,95965.75
2023-04-20T09:58:20.403Z,95971.47
2023-04-20T10:00:49.055Z,95974.66
2023-04-20T10:03:18.438Z,95956.78
2023-04-20T10:05:47.104Z,95950.03
2023-04-20T10:08:15.471Z,95949.47
2023-04-20T10:10:47.183Z,95942.44
2023-04-20T10:13:15.836Z,95938.38
2023-04-20T10:15:44.262Z,95943.94
2023-04-20T10:18:24.575Z,95934.50
2023-04-20T10:20:53.109Z,95944.34
2023-04-20T10:23:21.434Z,95945.00
2023-04-20T10:26:01.858Z,95929.91
2023-04-20T10:28:39.684Z,95916.19
2023-04-20T10:31:09.173Z,95925.50
2023-04-20T10:33:37.446Z,95912.66
2023-04-20T10:36:06.016Z,95926.97
2023-04-20T10:38:35.795Z,95920.56
2023-04-20T10:41:08.844Z,95927.63
2023-04-20T10:43:39.077Z,95912.38
2023-04-20T10:46:15.173Z,95912.63
2023-04-20T10:48:51.655Z,95903.25
2023-04-20T10:51:19.999Z,95910.00
2023-04-20T10:53:59.042Z,95908.03
2023-04-20T10:56:28.736Z,95901.25
2023-04-20T10:59:07.515Z,95896.34
2023-04-20T11:01:36.171Z,95901.13
2023-04-20T11:04:04.585Z,95896.53
2023-04-20T11:06:32.917Z,95894.03
2023-04-20T11:09:01.356Z,95882.44
2023-04-20T11:11:30.962Z,95877.50
2023-04-20T11:14:08.846Z,95876.81
2023-04-20T11:16:49.550Z,95879.28
2023-04-20T11:19:24.877Z,95872.31
2023-04-20T11:21:53.258Z,95874.13
2023-04-20T11:24:22.316Z,95880.97
2023-04-20T11:26:54.167Z,95871.94
2023-04-20T11:29:30.141Z,95869.69
2023-04-20T11:31:58.826Z,95867.78
2023-04-20T11:34:27.387Z,95878.94
2023-04-20T11:36:56.813Z,95864.69
2023-04-20T11:39:25.704Z,95876.31
2023-04-20T11:41:56.607Z,95861.84
2023-04-20T11:44:26.092Z,95871.84
2023-04-20T11:46:57.213Z,95853.22
2023-04-20T11:49:26.584Z,95860.81
2023-04-20T11:51:54.991Z,95861.44
2023-04-20T11:54:24.147Z,95867.09
2023-04-20T11:56:52.810Z,95870.44
2023-04-20T11:59:22.534Z,95868.13
2023-04-20T12:01:50.736Z,95866.53
2023-04-20T12:04:19.567Z,95865.84
2023-04-20T12:06:48.316Z,95870.19
2023-04-20T12:09:17.224Z,95858.75
2023-04-20T12:11:45.751Z,95860.38
2023-04-20T12:14:14.029Z,95857.41
2023-04-20T12:16:43.705Z,95847.13
2023-04-20T12:19:11.969Z,95859.28
2023-04-20T12:21:40.216Z,95849.81
2023-04-20T12:24:08.928Z,95856.84
2023-04-20T12:26:38.653Z,95846.22
2023-04-20T12:29:08.389Z,95848.84
2023-04-20T12:31:37.199Z,95855.31
2023-04-20T12:34:07.147Z,95828.63
2023-04-20T12:36:36.609Z,95846.41
2023-04-20T12:39:05.180Z,95841.97
2023-04-20T12:41:34.495Z,95840.66
2023-04-20T12:44:05.815Z,95828.66
2023-04-20T12:46:35.480Z,95833.16
2023-04-20T12:49:03.832Z,95830.41
2023-04-20T12:51:33.510Z,95827.28
2023-04-20T12:54:01.908Z,95833.88
2023-04-20T12:56:30.226Z,95827.44
2023-04-20T12:59:18.258Z,95818.94
2023-04-20T13:01:47.339Z,95821.03
2023-04-20T13:04:16.399Z,95816.13
2023-04-20T13:06:46.361Z,95808.53
2023-04-20T13:09:14.629Z,95814.41
2023-04-20T13:11:45.332Z,95804.81
2023-04-20T13:14:13.588Z,95807.34
2023-04-20T13:16:41.906Z,95801.94
2023-04-20T13:19:10.145Z,95798.06
2023-04-20T13:21:38.695Z,95794.75
2023-04-20T13:24:08.730Z,95805.06
2023-04-20T13:26:37.370Z,95812.00
2023-04-20T13:29:05.736Z,95796.81
2023-04-20T13:31:34.674Z,95802.19
2023-04-20T13:34:02.964Z,95802.81
2023-04-20T13:36:31.952Z,95794.78
2023-04-20T13:39:00.269Z,95798.31
2023-04-20T13:41:29.955Z,95796.06
2023-04-20T13:43:59.062Z,95786.59
2023-04-20T13:46:27.395Z,95791.72
2023-04-20T13:48:55.870Z,95784.88
2023-04-20T13:51:24.151Z,95783.34
2023-04-20T13:53:52.378Z,95768.31
2023-04-20T13:56:21.086Z,95778.06
2023-04-20T13:58:50.764Z,95762.03
2023-04-20T14:01:19.088Z,95757.47
2023-04-20T14:03:47.529Z,95763.16
2023-04-20T14:06:15.920Z,95763.28
2023-04-20T14:08:44.256Z,95766.53
2023-04-20T14:11:12.574Z,95772.91
2023-04-20T14:13:41.281Z,95765.44
2023-04-20T14:16:11.831Z,95782.47
2023-04-20T14:18:39.986Z,95774.09
2023-04-20T14:21:08.297Z,95768.44
2023-04-20T14:23:36.572Z,95762.13
2023-04-20T14:26:04.932Z,95759.28
2023-04-20T14:28:33.603Z,95747.59
2023-04-20T14:31:02.883Z,95746.06
2023-04-20T14:33:32.555Z,95747.38
2023-04-20T14:36:00.865Z,95748.59
2023-04-20T14:38:29.111Z,95743.88
2023-04-20T14:40:57.339Z,95748.25
2023-04-20T14:43:25.698Z,95750.66
2023-04-20T14:45:55.231Z,95747.44
2023-04-20T14:48:25.157Z,95752.97
2023-04-20T14:50:54.875Z,95724.84
2023-04-20T14:53:23.346Z,95739.00
2023-04-20T14:55:52.355Z,95722.75
2023-04-20T14:58:21.236Z,95729.88
2023-04-20T15:00:49.868Z,95718.00
2023-04-20T15:03:18.787Z,95724.91
2023-04-20T15:05:48.236Z,95726.47
2023-04-20T15:08:17.879Z,95723.13
2023-04-20T15:10:46.131Z,95718.50
2023-04-20T15:13:14.498Z,95731.50
2023-04-20T15:18:16.000Z,95726.38
2023-04-20T15:20:44.420Z,95725.53
2023-04-20T15:23:13.060Z,95721.78
2023-04-20T15:25:42.675Z,95716.97
2023-04-20T15:28:11.217Z,95715.13
2023-04-20T15:30:39.499Z,95720.78
2023-04-20T15:33:07.837Z,95712.69
2023-04-20T15:35:36.616Z,95709.06
2023-04-20T15:38:04.897Z,95710.63
2023-04-20T15:40:33.125Z,95704.72
2023-04-20T15:43:03.657Z,95699.78
2023-04-20T15:45:31.756Z,95703.19
2023-04-20T15:48:00.904Z,95703.84
2023-04-20T15:50:29.409Z,95697.34
2023-04-20T15:52:57.713Z,95695.22
2023-04-20T15:55:26.041Z,95697.84
2023-04-20T15:57:57.191Z,95695.03
2023-04-20T16:00:27.020Z,95696.59
2023-04-20T16:02:55.549Z,95704.03
2023-04-20T16:05:24.500Z,95710.88
2023-04-20T16:07:53.577Z,95711.50
2023-04-20T16:10:23.564Z,95716.38
2023-04-20T16:12:52.170Z,95722.53
2023-04-20T16:15:21.094Z,95706.50
2023-04-20T16:17:50.748Z,95712.44
2023-04-20T16:20:19.245Z,95710.72
2023-04-20T16:22:47.455Z,95716.94
2023-04-20T16:25:22.698Z,95714.94
2023-04-20T16:27:51.802Z,95721.38
2023-04-20T16:30:20.138Z,95712.84
2023-04-20T16:32:50.014Z,95708.34
2023-04-20T16:35:18.457Z,95705.66
2023-04-20T16:37:46.824Z,95706.78
2023-04-20T16:40:15.119Z,95699.97
2023-04-20T16:42:43.407Z,95693.91
2023-04-20T16:45:11.852Z,95689.28
2023-04-20T16:47:40.241Z,95686.25
2023-04-20T16:50:12.636Z,95687.56
2023-04-20T16:52:40.896Z,95696.28
2023-04-20T16:55:10.053Z,95692.41
2023-04-20T16:57:38.334Z,95698.81
2023-04-20T17:00:08.877Z,95699.53
2023-04-20T17:02:37.563Z,95701.59
2023-04-20T17:05:07.276Z,95709.25
2023-04-20T17:07:38.517Z,95716.56
2023-04-20T17:10:07.915Z,95716.56
2023-04-20T17:12:36.131Z,95724.50
2023-04-20T17:15:04.955Z,95733.69
2023-04-20T17:17:34.175Z,95730.06
2023-04-20T17:20:05.686Z,95729.50
2023-04-20T17:22:33.965Z,95739.47
2023-04-20T17:25:06.537Z,95738.50
2023-04-20T17:27:35.946Z,95741.25
2023-04-20T17:30:04.831Z,95747.28
2023-04-20T17:32:33.380Z,95754.81
2023-04-20T17:35:01.872Z,95757.91
2023-04-20T17:37:30.145Z,95746.16
2023-04-20T17:39:58.404Z,95739.97
2023-04-20T17:42:28.087Z,95734.78
2023-04-20T17:44:56.494Z,95741.66
2023-04-20T17:47:24.868Z,95736.19
2023-04-20T17:49:53.519Z,95735.25
2023-04-20T17:52:22.335Z,95753.41
2023-04-20T17:54:50.662Z,95752.16
2023-04-20T17:57:18.988Z,95753.41
2023-04-20T17:59:48.676Z,95765.53
2023-04-20T18:02:17.495Z,95764.66
2023-04-20T18:04:46.134Z,95769.91
2023-04-20T18:07:16.847Z,95769.03
2023-04-20T18:09:44.986Z,95757.91
2023-04-20T18:12:13.243Z,95766.78
2023-04-20T18:14:42.414Z,95768.25
2023-04-20T18:17:12.047Z,95767.16
2023-04-20T18:19:40.864Z,95780.41
2023-04-20T18:22:09.163Z,95770.53
2023-04-20T18:24:38.015Z,95787.91
2023-04-20T18:27:06.320Z,95790.06
2023-04-20T18:29:34.645Z,95787.63
2023-04-20T18:32:03.072Z,95795.69
2023-04-20T18:34:32.800Z,95808.53
2023-04-20T18:37:01.013Z,95807.09
2023-04-20T18:39:29.864Z,95823.31
2023-04-20T18:41:58.199Z,95816.31
2023-04-20T18:44:28.257Z,95835.41
2023-04-20T18:46:56.777Z,95850.06
2023-04-20T18:49:25.200Z,95841.13
2023-04-20T18:51:54.934Z,95853.56
2023-04-20T18:54:23.264Z,95848.31
2023-04-20T18:56:51.903Z,95854.50
2023-04-20T18:59:20.525Z,95844.25
2023-04-20T19:01:49.490Z,95853.44
2023-04-20T19:04:18.305Z,95844.09
2023-04-20T19:06:46.952Z,95841.56
2023-04-20T19:09:16.647Z,95852.84
2023-04-20T19:11:44.938Z,95858.38
2023-04-20T19:14:13.155Z,95866.38
2023-04-20T19:16:41.493Z,95865.03
2023-04-20T19:19:09.869Z,95867.94
2023-04-20T19:21:38.124Z,95876.25
2023-04-20T19:24:06.952Z,95872.91
2023-04-20T19:26:36.786Z,95860.41
2023-04-20T19:29:05.067Z,95872.06
2023-04-20T19:31:37.507Z,95870.22
2023-04-20T19:34:06.010Z,95885.31
2023-04-20T19:36:34.934Z,95892.72
2023-04-20T19:39:03.977Z,95889.72
2023-04-20T19:41:32.249Z,95904.13
2023-04-20T19:44:04.515Z,95895.19
2023-04-20T19:46:33.003Z,95902.06
2023-04-20T19:49:01.785Z,95903.34
2023-04-20T19:51:31.904Z,95897.72
2023-04-20T19:54:01.495Z,95896.41
2023-04-20T19:56:29.859Z,95894.94
2023-04-20T19:58:58.077Z,95900.03
2023-04-20T20:01:27.697Z,95906.22
2023-04-20T20:03:56.189Z,95904.47
2023-04-20T20:06:24.484Z,95914.38
2023-04-20T20:08:52.723Z,95918.69
2023-04-20T20:11:22.045Z,95909.50
2023-04-20T20:13:50.326Z,95907.13
2023-04-20T20:16:19.165Z,95907.31
2023-04-20T20:18:50.965Z,95903.47
2023-04-20T20:21:19.193Z,95921.97
2023-04-20T20:23:47.394Z,95932.66
2023-04-20T20:26:15.727Z,95941.53
2023-04-20T20:28:44.010Z,95949.06
2023-04-20T20:31:12.246Z,95939.06
2023-04-20T20:33:42.784Z,95953.28
2023-04-20T20:36:12.373Z,95946.91
2023-04-20T20:38:41.264Z,95958.59
2023-04-20T20:41:10.796Z,95953.50
2023-04-20T20:43:41.785Z,95953.44
2023-04-20T20:46:10.240Z,95943.22
2023-04-20T20:48:38.507Z,95938.53
2023-04-20T20:51:06.755Z,95933.50
2023-04-20T20:53:36.466Z,95937.25
2023-04-20T20:56:04.863Z,95938.81
2023-04-20T20:58:33.300Z,95950.91
2023-04-20T21:01:01.623Z,95953.69
2023-04-20T21:03:30.462Z,95954.22
2023-04-20T21:05:58.970Z,95955.22
2023-04-20T21:08:27.232Z,95952.59
2023-04-20T21:10:56.921Z,95953.75
2023-04-20T21:13:25.244Z,95958.66
2023-04-20T21:15:53.480Z,95964.59
2023-04-20T21:18:21.718Z,95951.69
2023-04-20T21:20:49.972Z,95955.78
2023-04-20T21:23:18.251Z,95954.97
2023-04-20T21:25:46.489Z,95953.25
2023-04-20T21:28:16.058Z,95945.44
2023-04-20T21:30:44.357Z,95939.03
2023-04-20T21:33:12.614Z,95950.59
2023-04-20T21:35:40.915Z,95944.94
2023-04-20T21:38:09.165Z,95948.06
2023-04-20T21:40:37.464Z,95959.38
2023-04-20T21:43:05.659Z,95955.56
2023-04-20T21:45:36.904Z,95953.91
2023-04-20T21:48:05.843Z,95956.38
2023-04-20T21:50:34.173Z,95949.97
2023-04-20T21:53:02.446Z,95953.84
2023-04-20T21:55:30.761Z,95948.88
2023-04-20T21:57:58.982Z,95948.81
2023-04-20T22:00:27.357Z,95947.66
2023-04-20T22:02:57.064Z,95940.94
2023-04-20T22:05:26.175Z,95949.09
2023-04-20T22:07:54.449Z,95947.69
2023-04-20T22:10:22.670Z,95937.84
2023-04-20T22:12:51.003Z,95938.66
2023-04-20T22:15:22.113Z,95934.53
2023-04-20T22:17:50.548Z,95937.22
2023-04-20T22:20:20.212Z,95925.25
2023-04-20T22:22:48.488Z,95925.19
2023-04-20T22:25:16.771Z,95936.06
2023-04-20T22:27:45.020Z,95934.88
2023-04-20T22:30:14.107Z,95937.22
2023-04-20T22:32:42.412Z,95949.72
2023-04-20T22:35:10.976Z,95945.81
2023-04-20T22:37:40.860Z,95956.53
2023-04-20T22:40:10.331Z,95950.53
2023-04-20T22:42:38.559Z,95957.09
2023-04-20T22:45:09.452Z,95958.94
2023-04-20T22:47:38.196Z,95954.44
2023-04-20T22:50:09.670Z,95954.44
2023-04-20T22:52:38.554Z,95947.47
2023-04-20T22:55:09.830Z,95939.59
2023-04-20T22:57:39.080Z,95944.63
2023-04-20T23:00:10.709Z,95943.47
2023-04-20T23:02:39.275Z,95945.06
2023-04-20T23:05:08.308Z,95935.25
2023-04-20T23:07:37.566Z,95939.81
2023-04-20T23:10:07.094Z,95938.25
2023-04-20T23:12:36.872Z,95927.63
2023-04-20T23:15:06.096Z,95931.97
2023-04-20T23:17:34.371Z,95931.97
2023-04-20T23:20:02.921Z,95937.91
2023-04-20T23:22:31.201Z,95930.91
2023-04-20T23:24:59.530Z,95926.16
2023-04-20T23:27:27.748Z,95917.16
2023-04-20T23:29:57.346Z,95917.63
2023-04-20T23:32:26.005Z,95916.84
2023-04-20T23:34:54.314Z,95919.25
2023-04-20T23:37:22.633Z,95921.72
2023-04-20T23:39:50.840Z,95921.09
2023-04-20T23:42:19.228Z,95919.47
2023-04-20T23:44:47.554Z,95924.00
2023-04-20T23:47:17.787Z,95915.69
2023-04-20T23:49:46.100Z,95916.84
2023-04-20T23:52:14.452Z,95920.88
2023-04-20T23:54:42.704Z,95921.19
2023-04-20T23:57:11.003Z,95919.50
2023-04-20T23:59:39.307Z,95921.22
